Time;durP1;ratioP1;P1;durP2;ratioP2;P2;SDS_P1;SDS_P2;PMS_P1;PMS_P2;Temp;Humidity;BMP_temperature;BMP_pressure;BME280_temperature;BME280_humidity;BME280_pressure;Samples;Min_cycle;Max_cycle;Signal;HPM_P1;HPM_P2
2023/03/01 00:01:12;;;;;;;174.40;113.40;;;;;;;-3.71;100.00;100218.34;109550;1251;59047;-76
2023/03/01 00:03:39;;;;;;;173.70;116.90;;;;;;;-3.74;100.00;100218.13;109575;1251;64814;-76
2023/03/01 00:06:06;;;;;;;183.60;120.70;;;;;;;-3.78;100.00;100215.48;109578;1251;61077;-76
2023/03/01 00:08:33;;;;;;;170.40;114.10;;;;;;;-3.79;100.00;100213.90;109530;1251;65245;-76
2023/03/01 00:11:09;;;;;;;167.80;110.40;;;;;;;-3.81;100.00;100214.06;109510;1251;58978;-76
2023/03/01 00:13:36;;;;;;;161.50;106.10;;;;;;;-3.83;100.00;100215.95;109578;1251;59060;-76
2023/03/01 00:16:10;;;;;;;163.90;103.90;;;;;;;-3.85;100.00;100219.06;109579;1251;65669;-76
2023/03/01 00:18:37;;;;;;;157.40;100.10;;;;;;;-3.85;100.00;100223.04;108786;1251;1002767;-76
2023/03/01 00:21:04;;;;;;;137.40;90.30;;;;;;;-3.85;100.00;100220.61;109545;1251;65093;-74
2023/03/01 00:23:33;;;;;;;145.70;91.80;;;;;;;-3.84;100.00;100219.23;109517;1251;58967;-75
2023/03/01 00:26:00;;;;;;;145.70;90.00;;;;;;;-3.84;100.00;100216.29;108752;1252;1002357;-76
2023/03/01 00:28:26;;;;;;;139.30;91.30;;;;;;;-3.84;100.00;100215.08;109283;1251;59414;-76
2023/03/01 00:30:53;;;;;;;141.10;89.40;;;;;;;-3.87;100.00;100212.27;109582;1251;59162;-77
2023/03/01 00:33:19;;;;;;;146.90;94.50;;;;;;;-3.90;100.00;100209.61;109521;1251;59071;-75
2023/03/01 00:35:47;;;;;;;140.30;93.20;;;;;;;-3.96;100.00;100207.48;108792;1251;1002626;-76
2023/03/01 00:38:14;;;;;;;136.70;90.10;;;;;;;-4.02;100.00;100203.05;108786;1251;1003014;-75
2023/03/01 00:40:40;;;;;;;145.10;93.00;;;;;;;-4.11;100.00;100199.31;109548;1251;66670;-76
2023/03/01 00:43:08;;;;;;;146.80;93.00;;;;;;;-4.19;100.00;100197.32;109580;1251;61460;-76
2023/03/01 00:45:34;;;;;;;136.10;91.30;;;;;;;-4.25;100.00;100200.18;109526;1253;65035;-77
2023/03/01 00:48:01;;;;;;;145.80;91.40;;;;;;;-4.29;100.00;100202.74;109587;1251;58967;-76
2023/03/01 00:50:28;;;;;;;148.90;93.80;;;;;;;-4.30;100.00;100202.02;109537;1252;59027;-76
2023/03/01 00:52:55;;;;;;;152.50;91.60;;;;;;;-4.31;100.00;100201.52;109532;1253;66679;-77
2023/03/01 00:55:23;;;;;;;142.20;88.00;;;;;;;-4.31;100.00;100197.69;109588;1251;60382;-77
2023/03/01 00:57:50;;;;;;;137.50;91.20;;;;;;;-4.33;100.00;100200.08;109316;1251;63837;-74
2023/03/01 01:00:18;;;;;;;142.40;91.10;;;;;;;-4.37;100.00;100197.95;109510;1252;59034;-76
2023/03/01 01:02:45;;;;;;;141.30;95.40;;;;;;;-4.42;100.00;100194.08;109594;1251;59101;-76
2023/03/01 01:05:12;;;;;;;139.70;93.00;;;;;;;-4.45;100.00;100191.77;109576;1251;66873;-76
2023/03/01 01:07:39;;;;;;;140.00;90.70;;;;;;;-4.48;100.00;100189.65;108779;1251;1002326;-76
2023/03/01 01:10:06;;;;;;;137.40;90.40;;;;;;;-4.51;100.00;100187.02;109534;1251;65221;-76
2023/03/01 01:12:32;;;;;;;142.50;91.30;;;;;;;-4.54;100.00;100191.84;109558;1251;58994;-76
2023/03/01 01:14:59;;;;;;;145.00;93.00;;;;;;;-4.58;100.00;100192.14;109258;1251;59026;-76
2023/03/01 01:17:26;;;;;;;144.20;94.40;;;;;;;-4.61;100.00;100191.23;109243;1250;64538;-77
2023/03/01 01:19:52;;;;;;;136.90;92.40;;;;;;;-4.64;100.00;100188.07;109554;1254;60978;-76
2023/03/01 01:22:19;;;;;;;145.30;90.80;;;;;;;-4.66;100.00;100182.14;109585;1251;65217;-75
2023/03/01 01:24:45;;;;;;;147.50;94.50;;;;;;;-4.68;100.00;100180.20;109524;1252;59030;-76
2023/03/01 01:27:12;;;;;;;152.00;96.20;;;;;;;-4.71;100.00;100178.45;109534;1251;59004;-76
2023/03/01 01:29:39;;;;;;;153.40;95.20;;;;;;;-4.72;100.00;100178.42;108818;1250;1002198;-75
2023/03/01 01:32:05;;;;;;;147.40;94.40;;;;;;;-4.72;100.00;100173.41;108787;1251;1002285;-76
2023/03/01 01:34:32;;;;;;;145.90;95.90;;;;;;;-4.72;100.00;100173.23;109538;1253;59512;-75
2023/03/01 01:37:02;;;;;;;145.40;93.00;;;;;;;-4.72;100.00;100173.05;109572;1251;59238;-76
2023/03/01 01:39:29;;;;;;;152.10;94.10;;;;;;;-4.73;100.00;100172.17;109585;1251;58880;-75
2023/03/01 01:41:56;;;;;;;152.00;96.80;;;;;;;-4.75;100.00;100167.64;109525;1251;65920;-77
2023/03/01 01:44:26;;;;;;;152.10;97.40;;;;;;;-4.77;100.00;100168.82;109535;1251;59750;-76
2023/03/01 01:46:52;;;;;;;;;;;;;;;-4.79;100.00;100165.33;108824;1251;1002455;-75
2023/03/01 01:49:28;;;;;;;137.40;86.30;;;;;;;-4.81;100.00;100165.30;109551;1251;59095;-74
2023/03/01 01:52:02;;;;;;;143.50;93.70;;;;;;;-4.84;100.00;100164.03;109589;1251;58989;-75
2023/03/01 01:54:36;;;;;;;148.00;94.20;;;;;;;-4.87;100.00;100160.89;108753;1253;1002180;-76
2023/03/01 01:57:10;;;;;;;152.00;96.00;;;;;;;-4.90;100.00;100155.14;109531;1253;60802;-75
2023/03/01 01:59:38;;;;;;;149.80;97.80;;;;;;;-4.92;100.00;100153.71;109524;1253;64684;-75
2023/03/01 02:02:05;;;;;;;149.30;96.60;;;;;;;-4.93;100.00;100154.20;109519;1251;59017;-75
2023/03/01 02:04:32;;;;;;;154.00;103.60;;;;;;;-4.95;100.00;100155.22;108817;1251;1002333;-75
2023/03/01 02:07:10;;;;;;;151.30;98.90;;;;;;;-4.96;100.00;100150.35;109262;1251;66950;-75
2023/03/01 02:09:36;;;;;;;150.90;99.00;;;;;;;-4.96;100.00;100153.30;109637;1251;60989;-75
2023/03/01 02:12:04;;;;;;;152.80;100.00;;;;;;;-4.96;100.00;100152.44;109545;1251;71744;-75
2023/03/01 02:14:31;;;;;;;158.60;103.40;;;;;;;-4.95;100.00;100150.52;109569;1251;59159;-75
2023/03/01 02:16:58;;;;;;;162.50;100.90;;;;;;;-4.94;100.00;100152.98;108799;1251;1002188;-75
2023/03/01 02:20:02;;;;;;;153.50;100.90;;;;;;;-4.93;100.00;100151.45;109558;1255;59042;-75
2023/03/01 02:22:31;;;;;;;160.30;100.90;;;;;;;-4.92;100.00;100151.80;108970;1259;60915;-75
2023/03/01 02:25:18;;;;;;;159.80;99.50;;;;;;;-4.91;100.00;100148.52;108901;1259;64736;-75
2023/03/01 02:27:56;;;;;;;150.10;96.60;;;;;;;-4.91;100.00;100144.18;108912;1259;58966;-75
2023/03/01 02:30:24;;;;;;;160.20;100.10;;;;;;;-4.94;100.00;100145.02;108898;1260;59079;-75
2023/03/01 02:32:56;;;;;;;150.10;102.20;;;;;;;-4.98;100.00;100141.15;108035;1259;1002970;-75
2023/03/01 02:35:23;;;;;;;154.40;97.60;;;;;;;-5.01;100.00;100140.92;108939;1259;59780;-75
2023/03/01 02:37:50;;;;;;;167.90;101.90;;;;;;;-5.05;100.00;100138.77;108928;1259;65125;-76
2023/03/01 02:40:18;;;;;;;174.10;102.50;;;;;;;-5.08;100.00;100140.98;108909;1259;59073;-76
2023/03/01 02:42:55;;;;;;;159.60;99.80;;;;;;;-5.11;100.00;100144.77;108923;1259;58909;-75
2023/03/01 02:45:22;;;;;;;180.90;107.30;;;;;;;-5.13;100.00;100148.55;108806;1259;66970;-76
2023/03/01 02:47:49;;;;;;;190.70;107.90;;;;;;;-5.13;100.00;100146.29;108912;1259;60861;-75
2023/03/01 02:50:43;;;;;;;209.30;108.30;;;;;;;-5.13;100.00;100144.57;108930;1259;65075;-75
2023/03/01 02:53:21;;;;;;;237.70;117.40;;;;;;;-5.14;100.00;100148.36;108819;1260;59121;-75
2023/03/01 02:55:48;;;;;;;194.10;113.10;;;;;;;-5.14;100.00;100154.06;108919;1259;59106;-76
2023/03/01 02:58:15;;;;;;;166.70;103.90;;;;;;;-5.15;100.00;100147.14;108923;1259;66882;-76
2023/03/01 03:00:49;;;;;;;162.50;102.20;;;;;;;-5.13;100.00;100146.30;109560;1251;60725;-76
2023/03/01 03:03:19;;;;;;;154.90;102.30;;;;;;;-5.11;100.00;100142.52;109532;1251;64870;-76
2023/03/01 03:05:45;;;;;;;177.40;107.40;;;;;;;-5.10;100.00;100140.63;109506;1251;59330;-76
2023/03/01 03:08:12;;;;;;;189.10;109.10;;;;;;;-5.10;100.00;100136.64;109565;1252;58955;-76
2023/03/01 03:10:40;;;;;;;180.70;103.90;;;;;;;-5.11;100.00;100136.45;109541;1251;67014;-76
2023/03/01 03:13:10;;;;;;;177.10;107.10;;;;;;;-5.12;100.00;100137.47;109593;1251;61648;-76
2023/03/01 03:15:38;;;;;;;173.90;106.10;;;;;;;-5.14;100.00;100140.03;108782;1251;1002755;-76
2023/03/01 03:18:11;;;;;;;158.00;100.50;;;;;;;-5.17;100.00;100139.14;109384;1251;59006;-76
2023/03/01 03:20:40;;;;;;;158.60;104.40;;;;;;;-5.19;100.00;100134.26;109560;1251;58917;-75
2023/03/01 03:23:07;;;;;;;162.50;102.60;;;;;;;-5.18;100.00;100133.05;109590;1252;66195;-76
2023/03/01 03:25:37;;;;;;;170.20;106.20;;;;;;;-5.17;100.00;100137.74;109538;1251;61227;-76
2023/03/01 03:28:09;;;;;;;164.50;107.10;;;;;;;-5.16;100.00;100132.03;109538;1252;64994;-76
2023/03/01 03:30:38;;;;;;;159.30;104.60;;;;;;;-5.15;100.00;100130.50;109529;1251;59115;-75
2023/03/01 03:33:06;;;;;;;167.00;107.10;;;;;;;-5.13;100.00;100132.96;109590;1251;59041;-75
2023/03/01 03:35:39;;;;;;;157.10;100.80;;;;;;;-5.11;100.00;100133.49;109542;1254;67127;-76
2023/03/01 03:38:15;;;;;;;156.10;103.30;;;;;;;-5.10;100.00;100134.55;109608;1251;61058;-76
2023/03/01 03:41:03;;;;;;;161.70;102.70;;;;;;;-5.11;100.00;100137.50;109588;1251;64077;-76
2023/03/01 03:43:33;;;;;;;155.50;101.20;;;;;;;-5.14;100.00;100136.59;109511;1251;59011;-77
2023/03/01 03:46:00;;;;;;;;;;;;;;;-5.17;100.00;100136.02;109543;1251;59134;-76
2023/03/01 03:48:27;;;;;;;150.40;94.50;;;;;;;-5.21;100.00;100134.57;109551;1251;67063;-76
2023/03/01 03:50:55;;;;;;;156.30;97.40;;;;;;;-5.23;100.00;100131.93;109550;1251;60055;-76
2023/03/01 03:53:24;;;;;;;150.20;99.90;;;;;;;-5.27;100.00;100126.00;109218;1251;65033;-75
2023/03/01 03:55:52;;;;;;;152.40;101.40;;;;;;;-5.30;100.00;100124.04;109187;1251;59402;-75
2023/03/01 03:58:21;;;;;;;154.30;101.20;;;;;;;-5.33;100.00;100119.31;109535;1255;59035;-76
2023/03/01 04:00:51;;;;;;;155.00;103.00;;;;;;;-5.38;100.00;100118.73;109537;1251;65805;-76
2023/03/01 04:03:19;;;;;;;156.80;102.40;;;;;;;-5.38;100.00;100116.81;109600;1251;60100;-76
2023/03/01 04:05:47;;;;;;;159.50;103.30;;;;;;;-5.39;100.00;100114.39;109517;1251;64806;-76
2023/03/01 04:08:13;;;;;;;152.60;101.30;;;;;;;-5.41;100.00;100113.31;109502;1251;58964;-76
2023/03/01 04:10:43;;;;;;;165.30;105.00;;;;;;;-5.43;100.00;100113.62;109504;1251;58894;-76
2023/03/01 04:13:11;;;;;;;;;;;;;;;-5.46;100.00;100116.01;108767;1251;1002569;-76
2023/03/01 04:15:38;;;;;;;155.20;95.70;;;;;;;-5.50;100.00;100124.08;108749;1251;1015365;-76
2023/03/01 04:18:05;;;;;;;161.00;102.30;;;;;;;-5.53;100.00;100130.78;109521;1251;64164;-76
2023/03/01 04:20:34;;;;;;;165.90;102.60;;;;;;;-5.54;100.00;100132.67;108758;1251;1002263;-75
2023/03/01 04:23:13;;;;;;;156.40;99.40;;;;;;;-5.56;100.00;100133.52;109531;1253;58901;-76
2023/03/01 04:25:41;;;;;;;146.90;98.10;;;;;;;-5.58;100.00;100133.83;109562;1251;75098;-75
2023/03/01 04:28:09;;;;;;;153.80;96.60;;;;;;;-5.59;100.00;100137.95;109551;1250;60734;-76
2023/03/01 04:30:39;;;;;;;159.30;104.00;;;;;;;-5.60;100.00;100143.30;108780;1251;1002248;-76
2023/03/01 04:33:07;;;;;;;164.00;106.60;;;;;;;-5.60;100.00;100141.75;108792;1251;1002970;-76
2023/03/01 04:35:36;;;;;;;161.60;103.00;;;;;;;-5.58;100.00;100141.42;108818;1251;1002185;-76
2023/03/01 04:38:04;;;;;;;166.70;107.10;;;;;;;-5.57;100.00;100136.08;108663;1253;1002965;-75
2023/03/01 04:40:31;;;;;;;158.70;103.60;;;;;;;-5.57;100.00;100135.73;108807;1251;1002604;-77
2023/03/01 04:42:58;;;;;;;161.60;105.10;;;;;;;-5.59;100.00;100141.08;109575;1251;64165;-76
2023/03/01 04:45:24;;;;;;;166.70;111.40;;;;;;;-5.62;100.00;100141.20;109501;1251;58964;-76
2023/03/01 04:47:54;;;;;;;171.00;112.20;;;;;;;-5.65;100.00;100140.11;109286;1251;59005;-76
2023/03/01 04:50:21;;;;;;;155.00;104.70;;;;;;;-5.66;100.00;100138.18;109540;1251;66673;-76
2023/03/01 04:52:52;;;;;;;161.20;101.00;;;;;;;-5.68;100.00;100143.52;108776;1251;1002244;-76
2023/03/01 04:55:19;;;;;;;166.10;103.40;;;;;;;-5.71;100.00;100142.59;109510;1251;64923;-76
2023/03/01 04:57:46;;;;;;;169.80;107.50;;;;;;;-5.75;100.00;100135.95;109515;1251;60507;-76
2023/03/01 05:00:21;;;;;;;160.90;103.40;;;;;;;-5.76;100.00;100137.85;109585;1251;59234;-76
2023/03/01 05:02:59;;;;;;;159.30;101.30;;;;;;;-5.80;100.00;100133.80;109572;1251;67104;-76
2023/03/01 05:05:31;;;;;;;172.20;107.30;;;;;;;-5.83;100.00;100131.67;109476;1251;60025;-76
2023/03/01 05:08:00;;;;;;;169.40;103.80;;;;;;;-5.83;100.00;100129.41;108786;1251;1002225;-77
2023/03/01 05:10:29;;;;;;;170.00;106.70;;;;;;;-5.84;100.00;100124.55;109414;1251;58961;-76
2023/03/01 05:12:59;;;;;;;163.00;102.90;;;;;;;-5.85;100.00;100121.05;109501;1251;59013;-76
2023/03/01 05:15:28;;;;;;;172.80;112.50;;;;;;;-5.86;100.00;100127.11;109463;1250;67229;-75
2023/03/01 05:17:58;;;;;;;160.60;109.20;;;;;;;-5.86;100.00;100125.91;109530;1251;60972;-76
2023/03/01 05:20:28;;;;;;;;;;;;;;;-5.85;100.00;100122.10;109525;1251;65685;-76
2023/03/01 05:22:58;;;;;;;154.80;100.40;;;;;;;-5.86;100.00;100114.81;109468;1251;59216;-76
2023/03/01 05:25:25;;;;;;;159.90;106.60;;;;;;;-5.88;100.00;100114.27;108594;1251;1002319;-75
2023/03/01 05:27:52;;;;;;;179.80;113.20;;;;;;;-5.89;100.00;100119.09;109487;1251;66049;-76
2023/03/01 05:30:19;;;;;;;168.40;109.40;;;;;;;-5.88;100.00;100120.15;109588;1251;68402;-76
2023/03/01 05:32:48;;;;;;;167.90;110.30;;;;;;;-5.87;100.00;100117.42;109497;1251;72945;-76
2023/03/01 05:35:17;;;;;;;170.40;110.70;;;;;;;-5.85;100.00;100120.55;109519;1251;59440;-76
2023/03/01 05:37:46;;;;;;;179.40;112.60;;;;;;;-5.82;100.00;100122.69;109563;1251;58796;-76
2023/03/01 05:40:16;;;;;;;169.20;111.80;;;;;;;-5.79;100.00;100123.77;109540;1251;73791;-77
2023/03/01 05:42:43;;;;;;;;;;;;;;;-5.76;100.00;100124.17;108799;1251;1002961;-77
2023/03/01 05:45:12;;;;;;;158.70;103.60;;;;;;;-5.73;100.00;100118.52;109442;1251;73207;-77
2023/03/01 05:47:43;;;;;;;160.90;107.50;;;;;;;-5.70;100.00;100116.98;109551;1251;58986;-76
2023/03/01 05:50:14;;;;;;;165.90;110.10;;;;;;;-5.67;100.00;100117.91;108788;1251;1002537;-77
2023/03/01 05:52:40;;;;;;;167.40;110.20;;;;;;;-5.64;100.00;100116.77;109619;1251;67203;-75
2023/03/01 05:55:07;;;;;;;181.50;118.90;;;;;;;-5.60;100.00;100118.90;109506;1251;67727;-77
2023/03/01 05:57:34;;;;;;;177.00;117.40;;;;;;;-5.54;100.00;100117.43;109529;1251;71578;-76
2023/03/01 06:00:01;;;;;;;178.60;119.50;;;;;;;-5.46;100.00;100124.30;109516;1251;60378;-77
2023/03/01 06:02:32;;;;;;;183.30;122.60;;;;;;;-5.38;100.00;100120.80;109532;1251;59149;-75
2023/03/01 06:04:58;;;;;;;185.10;121.40;;;;;;;-5.29;100.00;100118.70;109553;1251;74051;-75
2023/03/01 06:07:25;;;;;;;181.90;121.30;;;;;;;-5.20;100.00;100123.84;109295;1250;70184;-76
2023/03/01 06:09:51;;;;;;;175.40;121.60;;;;;;;-5.11;100.00;100123.62;109477;1251;72648;-77
2023/03/01 06:12:18;;;;;;;190.10;123.60;;;;;;;-5.03;100.00;100125.30;109500;1251;59011;-74
2023/03/01 06:14:46;;;;;;;185.70;125.40;;;;;;;-4.94;100.00;100126.29;109538;1251;60656;-76
2023/03/01 06:17:13;;;;;;;174.80;116.10;;;;;;;-4.86;100.00;100125.02;109553;1251;66864;-76
2023/03/01 06:19:39;;;;;;;170.60;118.00;;;;;;;-4.79;100.00;100128.58;109555;1251;59737;-76
2023/03/01 06:22:06;;;;;;;183.90;124.20;;;;;;;-4.72;100.00;100123.82;109495;1251;62433;-76
2023/03/01 06:24:34;;;;;;;175.10;118.30;;;;;;;-4.61;100.00;100128.63;109491;1251;59013;-77
2023/03/01 06:27:00;;;;;;;190.90;123.90;;;;;;;-4.50;100.00;100133.44;109543;1251;59178;-76
2023/03/01 06:29:27;;;;;;;181.00;121.60;;;;;;;-4.42;100.00;100132.16;108000;1251;1002990;-75
2023/03/01 06:31:53;;;;;;;177.70;121.90;;;;;;;-4.31;100.00;100133.14;109498;1251;61246;-76
2023/03/01 06:34:21;;;;;;;174.50;120.70;;;;;;;-4.20;100.00;100136.40;109399;1251;63732;-75
2023/03/01 06:36:48;;;;;;;172.80;118.90;;;;;;;-4.09;100.00;100132.70;109473;1251;58929;-76
2023/03/01 06:39:16;;;;;;;180.10;119.20;;;;;;;-3.96;100.00;100126.75;109484;1251;59110;-77
2023/03/01 06:41:43;;;;;;;170.70;113.50;;;;;;;-3.84;100.00;100124.27;109467;1251;67448;-79
2023/03/01 06:44:10;;;;;;;177.50;117.70;;;;;;;-3.72;100.00;100120.90;109462;1251;60842;-80
2023/03/01 06:46:38;;;;;;;175.70;118.10;;;;;;;-3.61;100.00;100123.95;109399;1251;64769;-80
2023/03/01 06:49:09;;;;;;;162.90;114.80;;;;;;;-3.50;100.00;100122.30;109493;1251;58963;-77
2023/03/01 06:51:36;;;;;;;165.70;116.20;;;;;;;-3.40;100.00;100122.89;108743;1251;1002143;-77
2023/03/01 06:54:04;;;;;;;158.00;111.30;;;;;;;-3.29;100.00;100123.16;109306;1251;66040;-75
2023/03/01 06:56:31;;;;;;;173.30;120.00;;;;;;;-3.18;100.00;100124.45;108752;1251;1003014;-78
2023/03/01 06:58:58;;;;;;;165.50;116.40;;;;;;;-3.07;100.00;100124.88;109466;1251;65064;-77
2023/03/01 07:01:25;;;;;;;152.10;111.10;;;;;;;-2.94;100.00;100121.98;109323;1252;59039;-82
2023/03/01 07:03:52;;;;;;;156.00;110.20;;;;;;;-2.82;100.00;100119.46;109567;1250;58922;-72
2023/03/01 07:06:19;;;;;;;163.90;111.00;;;;;;;-2.70;100.00;100121.95;109585;1250;66724;-72
2023/03/01 07:08:45;;;;;;;164.40;111.40;;;;;;;-2.58;100.00;100123.23;109617;1250;60720;-73
2023/03/01 07:11:12;;;;;;;162.20;112.20;;;;;;;-2.48;100.00;100119.95;109606;1250;64755;-73
2023/03/01 07:13:39;;;;;;;155.30;111.00;;;;;;;-2.38;100.00;100120.52;109560;1249;58997;-73
2023/03/01 07:16:06;;;;;;;164.70;112.30;;;;;;;-2.28;100.00;100121.08;109648;1250;58990;-72
2023/03/01 07:18:33;;;;;;;155.10;109.90;;;;;;;-2.16;100.00;100117.63;109301;1251;65967;-72
2023/03/01 07:21:05;;;;;;;157.10;111.70;;;;;;;-2.05;100.00;100113.65;108834;1250;1002343;-72
2023/03/01 07:23:32;;;;;;;155.80;109.50;;;;;;;-1.95;100.00;100111.58;109590;1250;65566;-73
2023/03/01 07:26:00;;;;;;;160.10;112.60;;;;;;;-1.85;100.00;100104.98;109649;1249;58936;-81
2023/03/01 07:28:27;;;;;;;160.80;106.60;;;;;;;-1.74;100.00;100105.68;109501;1251;59009;-79
2023/03/01 07:30:54;;;;;;;140.20;98.90;;;;;;;-1.66;100.00;100104.47;109761;1251;67329;-79
2023/03/01 07:33:20;;;;;;;132.90;90.20;;;;;;;-1.58;100.00;100100.98;109521;1251;60996;-79
2023/03/01 07:35:47;;;;;;;136.20;90.50;;;;;;;-1.50;100.00;100096.80;109568;1251;63703;-79
2023/03/01 07:38:14;;;;;;;145.50;96.60;;;;;;;-1.41;100.00;100089.13;109571;1251;59051;-80
2023/03/01 07:40:40;;;;;;;141.00;93.40;;;;;;;-1.31;100.00;100086.32;109490;1250;59208;-76
2023/03/01 07:43:07;;;;;;;132.00;91.10;;;;;;;-1.22;100.00;100084.91;109315;1250;65750;-77
2023/03/01 07:45:34;;;;;;;129.60;92.90;;;;;;;-1.13;100.00;100077.39;109701;1249;61235;-76
2023/03/01 07:48:01;;;;;;;133.50;88.60;;;;;;;-1.02;100.00;100073.89;109664;1249;64795;-76
2023/03/01 07:50:27;;;;;;;113.80;79.50;;;;;;;-0.93;100.00;100071.42;109630;1249;58965;-77
2023/03/01 07:52:54;;;;;;;96.90;68.00;;;;;;;-0.82;100.00;100068.59;109710;1249;59079;-77
2023/03/01 07:55:20;;;;;;;89.10;60.10;;;;;;;-0.71;100.00;100065.76;109661;1249;67090;-77
2023/03/01 07:57:47;;;;;;;93.40;61.60;;;;;;;-0.62;100.00;100060.50;109668;1250;59831;-77
2023/03/01 08:00:14;;;;;;;99.70;70.30;;;;;;;-0.55;100.00;100057.33;109679;1249;63821;-76
2023/03/01 08:02:41;;;;;;;99.60;69.10;;;;;;;-0.49;100.00;100055.19;109646;1249;59043;-77
2023/03/01 08:05:10;;;;;;;102.40;73.00;;;;;;;-0.44;100.00;100056.21;109713;1249;58972;-75
2023/03/01 08:07:36;;;;;;;104.40;71.00;;;;;;;-0.36;100.00;100059.31;109633;1249;66741;-77
2023/03/01 08:10:04;;;;;;;100.00;69.80;;;;;;;-0.27;100.00;100057.69;109682;1249;60859;-76
2023/03/01 08:12:30;;;;;;;93.50;65.50;;;;;;;-0.16;100.00;100060.06;109522;1250;65021;-77
2023/03/01 08:14:57;;;;;;;94.40;64.60;;;;;;;-0.07;100.00;100058.26;109718;1249;58977;-77
2023/03/01 08:17:24;;;;;;;90.10;65.20;;;;;;;0.00;100.00;100053.50;109657;1250;59104;-77
2023/03/01 08:19:50;;;;;;;92.20;63.30;;;;;;;0.08;100.00;100053.45;109660;1249;65767;-76
2023/03/01 08:22:17;;;;;;;92.90;63.30;;;;;;;0.14;100.00;100052.70;109690;1249;59756;-76
2023/03/01 08:24:43;;;;;;;85.60;60.70;;;;;;;0.21;100.00;100054.21;109605;1249;65160;-77
2023/03/01 08:27:11;;;;;;;91.20;62.10;;;;;;;0.28;100.00;100053.47;109673;1249;59053;-77
2023/03/01 08:29:38;;;;;;;77.90;53.60;;;;;;;0.37;100.00;100055.48;108975;1249;1002505;-76
2023/03/01 08:32:05;;;;;;;73.20;49.70;;;;;;;0.44;100.00;100048.95;109751;1250;67295;-76
2023/03/01 08:34:31;;;;;;;71.30;47.70;;;;;;;0.49;100.00;100048.04;109780;1250;59756;-76
2023/03/01 08:36:58;;;;;;;66.40;45.60;;;;;;;0.56;100.00;100050.08;109694;1249;64078;-76
2023/03/01 08:39:25;;;;;;;66.60;47.20;;;;;;;0.63;100.00;100046.33;109736;1249;58936;-77
2023/03/01 08:41:52;;;;;;;54.40;39.70;;;;;;;0.73;100.00;100046.92;105917;1249;1003135;-77
2023/03/01 08:44:19;;;;;;;60.90;42.40;;;;;;;0.79;100.00;100044.59;109736;1250;65678;-77
2023/03/01 08:46:47;;;;;;;66.30;44.70;;;;;;;0.87;100.00;100037.86;109783;1250;61589;-77
2023/03/01 08:49:16;;;;;;;70.40;48.30;;;;;;;0.98;100.00;100037.05;109709;1250;64206;-77
2023/03/01 08:51:44;;;;;;;93.60;66.10;;;;;;;1.05;100.00;100040.11;109716;1249;58957;-77
2023/03/01 08:54:16;;;;;;;85.30;60.40;;;;;;;1.13;100.00;100039.33;109742;1249;58931;-76
2023/03/01 08:56:43;;;;;;;78.70;58.10;;;;;;;1.18;100.00;100037.69;109793;1249;66973;-77
2023/03/01 08:59:14;;;;;;;83.70;60.80;;;;;;;1.26;100.00;100031.99;109756;1249;60039;-78
2023/03/01 09:01:45;;;;;;;93.10;64.40;;;;;;;1.34;100.00;100030.15;109726;1249;65302;-77
2023/03/01 09:04:12;;;;;;;78.90;57.70;;;;;;;1.41;100.00;100026.37;109700;1250;58961;-76
2023/03/01 09:06:39;;;;;;;77.60;55.90;;;;;;;1.51;100.00;100028.86;109718;1249;59052;-76
2023/03/01 09:09:12;;;;;;;77.70;57.10;;;;;;;1.57;100.00;100026.69;109782;1249;66893;-76
2023/03/01 09:11:38;;;;;;;81.20;58.80;;;;;;;1.64;100.00;100030.27;109744;1249;59722;-76
2023/03/01 09:14:05;;;;;;;72.70;53.10;;;;;;;1.69;100.00;100026.86;109417;1249;65085;-76
2023/03/01 09:16:35;;;;;;;66.50;47.40;;;;;;;1.76;100.00;100026.59;109747;1249;59027;-76
2023/03/01 09:19:03;;;;;;;71.80;52.00;;;;;;;1.84;100.00;100024.36;109723;1249;58980;-76
2023/03/01 09:21:29;;;;;;;58.70;44.20;;;;;;;1.94;100.00;100024.05;109512;1249;67132;-76
2023/03/01 09:23:57;;;;;;;65.50;48.80;;;;;;;2.02;100.00;100025.84;109783;1249;60057;-76
2023/03/01 09:26:24;;;;;;;52.90;37.80;;;;;;;2.13;100.00;100026.73;109778;1249;62822;-76
2023/03/01 09:28:54;;;;;;;49.90;38.50;;;;;;;2.25;100.00;100019.88;109720;1249;58896;-76
2023/03/01 09:31:22;;;;;;;51.20;36.90;;;;;;;2.38;100.00;100023.33;109780;1249;59029;-76
2023/03/01 09:33:52;;;;;;;35.80;27.20;;;;;;;2.48;100.00;100022.65;109755;1250;67129;-77
2023/03/01 09:36:22;;;;;;;38.70;28.30;;;;;;;2.53;100.00;100023.25;109759;1249;60205;-76
2023/03/01 09:38:49;;;;;;;31.80;24.30;;;;;;;2.56;100.00;100023.89;109765;1250;63819;-76
2023/03/01 09:41:37;;;;;;;34.40;25.50;;;;;;;2.61;100.00;100024.70;109750;1249;58996;-76
2023/03/01 09:44:22;;;;;;;38.40;27.50;;;;;;;2.69;100.00;100027.54;109779;1250;59182;-76
2023/03/01 09:46:51;;;;;;;36.50;26.70;;;;;;;2.75;100.00;100028.45;109760;1250;67014;-77
2023/03/01 09:49:25;;;;;;;38.30;27.70;;;;;;;2.83;100.00;100027.96;109747;1249;60128;-77
2023/03/01 09:52:04;;;;;;;34.90;27.00;;;;;;;2.92;100.00;100024.80;109739;1250;65085;-77
2023/03/01 09:54:31;;;;;;;36.90;26.60;;;;;;;2.98;100.00;100027.16;109695;1249;58993;-76
2023/03/01 09:57:15;;;;;;;39.80;27.80;;;;;;;3.05;100.00;100023.15;109760;1250;58859;-77
2023/03/01 10:00:04;;;;;;;33.90;25.00;;;;;;;3.15;100.00;100023.30;109718;1249;66188;-77
2023/03/01 10:02:41;;;;;;;30.20;21.40;;;;;;;3.19;100.00;100017.80;109704;1250;60936;-76
2023/03/01 10:05:33;;;;;;;34.90;25.50;;;;;;;3.23;100.00;100017.88;109702;1250;64072;-76
2023/03/01 10:08:20;;;;;;;24.70;18.00;;;;;;;3.26;100.00;100013.25;109746;1250;58957;-76
2023/03/01 10:10:47;;;;;;;25.50;18.90;;;;;;;3.30;100.00;100012.12;109764;1250;59333;-76
2023/03/01 10:13:23;;;;;;;25.90;19.30;;;;;;;3.39;100.00;100012.63;109672;1250;66035;-75
2023/03/01 10:15:57;;;;;;;25.60;20.30;;;;;;;3.45;100.00;100010.58;109760;1250;60140;-76
2023/03/01 10:18:31;;;;;;;28.60;21.40;;;;;;;3.51;100.00;100004.80;109690;1249;65083;-76
2023/03/01 10:21:13;;;;;;;33.10;24.70;;;;;;;3.59;100.00;100002.52;109751;1249;58898;-77
2023/03/01 10:23:40;;;;;;;30.60;24.60;;;;;;;3.67;100.00;99996.73;109775;1249;58916;-77
2023/03/01 10:26:06;;;;;;;30.90;24.40;;;;;;;3.73;100.00;99992.92;109604;1255;65651;-76
2023/03/01 10:28:47;;;;;;;36.20;25.50;;;;;;;3.78;100.00;99988.05;109793;1250;60705;-77
2023/03/01 10:31:16;;;;;;;31.20;23.70;;;;;;;3.85;100.00;99986.81;109733;1249;64074;-77
2023/03/01 10:33:43;;;;;;;37.60;25.90;;;;;;;3.94;100.00;99983.80;109365;1249;59105;-77
2023/03/01 10:36:09;;;;;;;35.50;25.90;;;;;;;3.98;100.00;99982.83;109705;1250;58986;-76
2023/03/01 10:38:53;;;;;;;33.90;24.90;;;;;;;3.99;100.00;99982.80;109760;1249;67261;-76
2023/03/01 10:41:25;;;;;;;34.90;25.90;;;;;;;4.01;100.00;99982.74;109765;1250;59909;-77
2023/03/01 10:43:56;;;;;;;37.90;27.80;;;;;;;4.04;100.00;99986.71;109724;1250;65100;-77
2023/03/01 10:46:36;;;;;;;;;;;;;;;4.09;100.00;99983.27;109753;1250;58963;-77
2023/03/01 10:49:23;;;;;;;38.50;26.80;;;;;;;4.18;100.00;99981.45;109742;1249;58967;-77
2023/03/01 10:51:52;;;;;;;36.60;26.60;;;;;;;4.27;100.00;99981.04;109422;1250;64808;-77
2023/03/01 10:54:20;;;;;;;43.80;29.80;;;;;;;4.34;100.00;99977.67;109717;1250;59974;-77
2023/03/01 10:56:56;;;;;;;39.50;28.40;;;;;;;4.37;100.00;99975.34;109752;1249;64726;-77